Historyczne dane pomiarowe

Dodano dane terminowe – wersja testowa.

Dane z okresu 1951-2019

Wersja bazy: 1.34 [2019-03-16, lista zmian], aktualizacja planowana na 2019-04-15

Dane meteo z obszaru Polski uzyskane na podstawie danych udostępnionych przez Instytut Meteorologii i Gospodarki Wodnej – Państwowy Instytut Badawczy.

 

Wybierz Datę:    

       

TemperaturaWilgotnośćWiatrCiśnienieOpadyŚniegCzas trwania zjawisk
 Stacja t tx tn tng RH VA  wxwx mslp ppp RRR   cm mm wxwxwxwxwxwxwx
1963-02-14 -4.8 -3.9 -8.8--- 8.0 2.3---- 0.2-- 54---------
1963-02-15 -4.8 -2.7 -6.8--- 8.0 0.7---- 0.0-- 54---------
1963-02-16 -4.4 -2.2 -5.4--- 8.0 2.3---- 0.0-- 54---------
1963-02-17 -5.9 -5.0 -7.6--- 8.0 3.7---- 0.2-- 54---------
1963-02-18 -7.8 -5.2 -9.1--- 8.0 2.0---- 1.4-- 54---------
1963-02-19 -8.4 -7.1-15.6--- 8.0 2.7---- 0.0-- 56---------
1963-02-20 -6.7 -3.5-11.5--- 6.0 1.0---- 0.0-- 56---------
1963-02-21-15.0 -6.9-18.1--- 4.0 0.7---- 0.0-- 56---------
1963-02-22-10.8 -2.6-20.7--- 7.3 1.3---- 0.0-- 56---------
1963-02-23-10.3 -4.1-20.9--- 5.3 1.0---- 0.0-- 56---------
1963-02-24 -6.1 -3.8-12.7--- 8.0 4.7---- 0.0-- 56---------
1963-02-25 -6.4 -1.4-12.9--- 8.0 5.7---- 1.8-- 56---------
1963-02-26-20.4 -8.2-23.8--- 0.0 1.0---- 0.0-- 56---------
1963-02-27-12.5-10.7-26.2--- 8.0 2.0---- 2.3-- 56---------
1963-02-28 -9.1 -5.4-15.2--- 6.0 1.0---- 0.0-- 58---------
1963-03-01 -6.1 -4.1-14.1--- 5.3 1.7---- 0.0-- 58---------
1963-03-02 -3.8 -0.9 -4.7--- 8.0 2.0---- 0.0-- 58---------
1963-03-03 -1.1 0.1 -4.6--- 8.0 5.0---- 0.7-- 58---------
1963-03-04 -2.1 0.4 -3.2--- 8.0 1.3---- 1.8-- 58---------
1963-03-05 -1.4 0.8 -6.7--- 8.0 2.0---- 0.0-- 57---------
1963-03-06 0.3 3.8 -5.3--- 8.0 3.0---- 8.4-- 56---------
1963-03-07 2.1 4.2 1.6--- 8.0 4.3---- 3.8-- 28---------
1963-03-08 0.6 3.2 -0.9--- 7.7 5.3---- 1.9-- 23---------
1963-03-09 -4.9 -0.9 -5.7--- 5.7 3.3---- 0.0-- 20---------
1963-03-10 -7.0 -2.4-10.8--- 0.7 5.3---- 0.0-- 20---------
1963-03-11 -3.6 -1.5 -8.2--- 6.0 5.3---- 0.2-- 20---------
1963-03-12 0.2 2.7 -2.9--- 5.3 1.7---- 0.0-- 18---------
1963-03-13 -0.5 4.8 -2.4--- 7.7 2.7---- 5.6-- 17---------
1963-03-14-10.9 -1.4-12.2--- 2.3 3.7---- 0.0-- 19---------
1963-03-15-12.0 -5.2-20.3--- 0.3 0.3---- 0.0-- 19---------
155.7 ms

 

Źródłem pochodzenia danych jest Instytut Meteorologii i Gospodarki Wodnej – Państwowy Instytut Badawczy. Dane Instytutu Meteorologii i Gospodarki Wodnej – Państwowego Instytutu Badawczego zostały przetworzone.

Dane źródłowe można odnaleźć na stronie https://dane.imgw.pl